Time;durP1;ratioP1;P1;durP2;ratioP2;P2;SDS_P1;SDS_P2;PMS_P1;PMS_P2;Temp;Humidity;BMP_temperature;BMP_pressure;BME280_temperature;BME280_humidity;BME280_pressure;Samples;Min_cycle;Max_cycle;Signal;HPM_P1;HPM_P2
2022/04/11 00:02:13;;;;;;;18.88;6.88;;;4.00;99.90;;;;;;5031223;28;20504;-61
2022/04/11 00:04:38;;;;;;;12.80;6.15;;;4.00;99.90;;;;;;5030285;28;20026;-61
2022/04/11 00:07:04;;;;;;;9.32;5.95;;;4.00;99.90;;;;;;5031126;28;20032;-63
2022/04/11 00:09:29;;;;;;;14.48;6.32;;;4.00;99.90;;;;;;5040567;28;20519;-61
2022/04/11 00:11:56;;;;;;;12.15;6.18;;;4.00;99.90;;;;;;5050793;28;20021;-61
2022/04/11 00:14:22;;;;;;;11.48;6.13;;;4.10;99.90;;;;;;5036385;28;20033;-63
2022/04/11 00:16:48;;;;;;;10.32;6.43;;;4.10;99.90;;;;;;5031263;28;20022;-62
2022/04/11 00:19:13;;;;;;;13.82;5.97;;;4.00;99.90;;;;;;5034395;28;20505;-60
2022/04/11 00:21:39;;;;;;;10.80;5.95;;;4.00;99.90;;;;;;5031975;28;20042;-61
2022/04/11 00:24:05;;;;;;;12.07;5.60;;;4.00;99.90;;;;;;5045288;28;20029;-61
2022/04/11 00:26:30;;;;;;;12.27;5.70;;;4.00;99.90;;;;;;5031125;28;20029;-62
2022/04/11 00:28:56;;;;;;;10.35;5.50;;;4.00;99.90;;;;;;5061741;28;20024;-62
2022/04/11 00:31:22;;;;;;;10.85;6.32;;;4.00;99.90;;;;;;5076630;28;20152;-62
2022/04/11 00:33:48;;;;;;;10.18;5.70;;;4.00;99.90;;;;;;5087432;28;20020;-61
2022/04/11 00:36:13;;;;;;;12.48;5.90;;;4.00;99.90;;;;;;5080168;28;20020;-63
2022/04/11 00:38:39;;;;;;;10.40;5.47;;;4.00;99.90;;;;;;5071013;28;20033;-63
2022/04/11 00:41:05;;;;;;;10.68;5.80;;;4.00;99.90;;;;;;5076044;28;20391;-60
2022/04/11 00:43:35;;;;;;;14.95;6.07;;;4.00;99.90;;;;;;5070652;28;20029;-62
2022/04/11 00:46:02;;;;;;;13.43;6.03;;;4.10;99.90;;;;;;5075814;28;20043;-62
2022/04/11 00:48:28;;;;;;;11.75;5.75;;;4.00;99.90;;;;;;5088751;28;20398;-61
2022/04/11 00:50:59;;;;;;;15.10;5.88;;;4.00;99.90;;;;;;5087219;28;20046;-61
2022/04/11 00:53:26;;;;;;;14.50;5.70;;;4.00;99.90;;;;;;5090197;28;20020;-63
2022/04/11 00:55:54;;;;;;;11.35;5.50;;;4.10;99.90;;;;;;5082725;28;20108;-62
2022/04/11 00:58:20;;;;;;;16.10;6.20;;;4.10;99.90;;;;;;5074331;28;20035;-62
2022/04/11 01:00:46;;;;;;;10.60;5.28;;;4.10;99.90;;;;;;5087418;28;20055;-60
2022/04/11 01:03:11;;;;;;;7.18;4.88;;;4.10;99.90;;;;;;5084063;28;20458;-61
2022/04/11 01:05:37;;;;;;;11.10;5.75;;;4.10;99.90;;;;;;5084756;28;20107;-59
2022/04/11 01:08:07;;;;;;;17.85;5.47;;;4.10;99.90;;;;;;5089618;28;20030;-60
2022/04/11 01:10:33;;;;;;;10.85;5.65;;;4.20;99.90;;;;;;5090534;28;20032;-60
2022/04/11 01:13:00;;;;;;;13.13;5.38;;;4.10;99.90;;;;;;5075345;28;20377;-60
2022/04/11 01:15:26;;;;;;;14.60;6.45;;;4.00;99.90;;;;;;5088574;28;20029;-60
2022/04/11 01:17:52;;;;;;;11.32;5.07;;;4.10;99.90;;;;;;5090082;28;20028;-60
2022/04/11 01:20:19;;;;;;;10.88;5.35;;;4.10;99.90;;;;;;5074141;28;20040;-62
2022/04/11 01:22:46;;;;;;;13.23;5.05;;;4.10;99.90;;;;;;5056430;28;20028;-61
2022/04/11 01:25:12;;;;;;;11.35;5.13;;;4.10;99.90;;;;;;5073674;28;20032;-62
2022/04/11 01:27:38;;;;;;;11.63;5.40;;;4.20;99.90;;;;;;5073481;28;20433;-62
2022/04/11 01:30:10;;;;;;;12.50;5.57;;;4.20;99.90;;;;;;5066633;28;20028;-62
2022/04/11 01:32:39;;;;;;;11.80;5.07;;;4.20;99.90;;;;;;5080473;28;20025;-62
2022/04/11 01:35:17;;;;;;;8.50;5.32;;;4.30;99.90;;;;;;5075053;28;20035;-61
2022/04/11 01:37:43;;;;;;;9.48;5.32;;;4.30;99.90;;;;;;5056056;28;20058;-62
2022/04/11 01:40:09;;;;;;;7.40;5.28;;;4.30;99.90;;;;;;5073436;28;20068;-61
2022/04/11 01:42:34;;;;;;;8.75;4.75;;;4.30;99.90;;;;;;5074038;28;20033;-61
2022/04/11 01:45:00;;;;;;;9.00;4.68;;;4.40;99.90;;;;;;5073381;28;20090;-60
2022/04/11 01:47:25;;;;;;;12.18;4.82;;;4.40;99.90;;;;;;5077022;28;20028;-62
2022/04/11 01:49:51;;;;;;;7.93;4.65;;;4.40;99.90;;;;;;5090342;28;20032;-61
2022/04/11 01:52:16;;;;;;;9.23;4.03;;;4.40;99.90;;;;;;5079540;28;20020;-61
2022/04/11 01:54:42;;;;;;;9.68;4.65;;;4.40;99.90;;;;;;5082579;28;20040;-61
2022/04/11 01:57:08;;;;;;;7.95;4.65;;;4.50;99.90;;;;;;5075679;28;20032;-62
2022/04/11 01:59:33;;;;;;;10.43;4.80;;;4.50;99.90;;;;;;5077777;28;20028;-61
2022/04/11 02:01:59;;;;;;;13.45;4.90;;;4.50;99.90;;;;;;5075476;28;20036;-62
2022/04/11 02:04:24;;;;;;;7.43;3.92;;;4.50;99.90;;;;;;5073168;28;20419;-60
2022/04/11 02:06:50;;;;;;;8.23;4.53;;;4.50;99.90;;;;;;5076205;28;20036;-62
2022/04/11 02:09:15;;;;;;;13.82;4.00;;;4.50;99.90;;;;;;5063494;28;20021;-61
2022/04/11 02:11:41;;;;;;;15.00;4.90;;;4.60;99.90;;;;;;5056926;28;20048;-59
2022/04/11 02:14:07;;;;;;;12.50;5.00;;;4.50;99.90;;;;;;5082151;28;20016;-62
2022/04/11 02:16:32;;;;;;;9.40;4.57;;;4.50;99.90;;;;;;5082337;28;20140;-62
2022/04/11 02:18:58;;;;;;;7.53;4.65;;;4.50;99.90;;;;;;5078717;28;20104;-62
2022/04/11 02:21:23;;;;;;;10.23;4.95;;;4.50;99.90;;;;;;5074590;28;20103;-61
2022/04/11 02:23:49;;;;;;;8.55;4.20;;;4.40;99.90;;;;;;5079950;28;20112;-61
2022/04/11 02:26:14;;;;;;;9.27;4.00;;;4.40;99.90;;;;;;5079508;28;20112;-62
2022/04/11 02:28:40;;;;;;;9.20;4.72;;;4.40;99.90;;;;;;5074704;28;20033;-61
2022/04/11 02:31:05;;;;;;;10.43;4.97;;;4.40;99.90;;;;;;5071527;28;20042;-60
2022/04/11 02:33:31;;;;;;;9.55;3.95;;;4.40;99.90;;;;;;5072557;28;20029;-60
2022/04/11 02:35:56;;;;;;;6.50;3.80;;;4.40;99.90;;;;;;5074647;28;20055;-58
2022/04/11 02:38:22;;;;;;;10.63;4.60;;;4.40;99.90;;;;;;5075232;28;20029;-60
2022/04/11 02:40:48;;;;;;;8.27;4.20;;;4.40;99.90;;;;;;5072891;28;20028;-61
2022/04/11 02:43:13;;;;;;;7.15;4.47;;;4.40;99.90;;;;;;5075119;28;20552;-61
2022/04/11 02:45:39;;;;;;;10.18;4.28;;;4.40;99.90;;;;;;5075345;28;20431;-62
2022/04/11 02:48:04;;;;;;;15.35;4.30;;;4.40;99.90;;;;;;5071927;28;20071;-62
2022/04/11 02:50:30;;;;;;;11.98;4.70;;;4.40;99.90;;;;;;5078878;28;21664;-62
2022/04/11 02:52:55;;;;;;;9.40;4.15;;;4.40;99.90;;;;;;5073815;28;20100;-62
2022/04/11 02:55:21;;;;;;;7.32;3.92;;;4.40;99.90;;;;;;5076132;28;20024;-61
2022/04/11 02:57:46;;;;;;;8.25;3.72;;;4.40;99.90;;;;;;5077612;28;20047;-62
2022/04/11 03:00:14;;;;;;;10.85;4.00;;;4.40;99.90;;;;;;5072981;28;20051;-62
2022/04/11 03:02:40;;;;;;;8.48;4.18;;;4.40;99.90;;;;;;5073316;28;20028;-61
2022/04/11 03:05:06;;;;;;;13.50;4.15;;;4.40;99.90;;;;;;5081385;28;20035;-61
2022/04/11 03:07:32;;;;;;;8.43;4.65;;;4.40;99.90;;;;;;5068972;28;20047;-60
2022/04/11 03:09:58;;;;;;;9.32;3.90;;;4.40;99.90;;;;;;5071646;28;20627;-59
2022/04/11 03:12:25;;;;;;;10.43;4.03;;;4.30;99.90;;;;;;5074187;28;20043;-60
2022/04/11 03:14:51;;;;;;;12.20;4.53;;;4.40;99.90;;;;;;5070924;28;20019;-64
2022/04/11 03:17:17;;;;;;;10.02;4.13;;;4.40;99.90;;;;;;5074138;28;20424;-60
2022/04/11 03:19:44;;;;;;;11.85;4.80;;;4.40;99.90;;;;;;5078443;28;20788;-58
2022/04/11 03:22:10;;;;;;;9.65;5.10;;;4.40;99.90;;;;;;5078498;28;20044;-62
2022/04/11 03:24:36;;;;;;;7.85;4.00;;;4.40;99.90;;;;;;5070518;28;20137;-61
2022/04/11 03:27:02;;;;;;;6.45;4.28;;;4.40;99.90;;;;;;5070956;28;20582;-62
2022/04/11 03:29:28;;;;;;;8.02;3.80;;;4.40;99.90;;;;;;5077344;28;20399;-62
2022/04/11 03:31:53;;;;;;;8.70;4.22;;;4.40;99.90;;;;;;5058274;28;20032;-62
2022/04/11 03:34:19;;;;;;;6.60;4.00;;;4.40;99.90;;;;;;5083213;28;20028;-60
2022/04/11 03:36:45;;;;;;;7.75;3.95;;;4.40;99.90;;;;;;5079120;28;20031;-61
2022/04/11 03:39:10;;;;;;;8.07;4.05;;;4.40;99.90;;;;;;5070819;28;20024;-60
2022/04/11 03:41:36;;;;;;;14.93;4.88;;;4.50;99.90;;;;;;5076211;28;20055;-62
2022/04/11 03:44:02;;;;;;;7.10;4.18;;;4.40;99.90;;;;;;5078154;28;20069;-61
2022/04/11 03:46:28;;;;;;;9.38;4.20;;;4.50;99.90;;;;;;5070547;28;20446;-61
2022/04/11 03:48:54;;;;;;;10.20;4.15;;;4.50;99.90;;;;;;5070696;28;20050;-62
2022/04/11 03:51:20;;;;;;;10.38;4.25;;;4.50;99.90;;;;;;5080595;28;20106;-62
2022/04/11 03:53:47;;;;;;;12.93;4.18;;;4.50;99.90;;;;;;5084767;28;20116;-62
2022/04/11 03:56:17;;;;;;;10.13;4.85;;;4.40;99.90;;;;;;5071029;28;20036;-63
2022/04/11 03:58:43;;;;;;;7.78;4.05;;;4.40;99.90;;;;;;5079073;28;20027;-62
2022/04/11 04:01:09;;;;;;;6.75;3.88;;;4.40;99.90;;;;;;5070206;28;20036;-61
2022/04/11 04:03:35;;;;;;;8.30;3.90;;;4.40;99.90;;;;;;5072887;28;20024;-61
2022/04/11 04:06:01;;;;;;;11.20;4.63;;;4.40;99.90;;;;;;5078685;28;20606;-60
2022/04/11 04:08:26;;;;;;;8.93;4.80;;;4.40;99.90;;;;;;5070917;28;20036;-63
2022/04/11 04:10:52;;;;;;;18.02;5.90;;;4.40;99.90;;;;;;5077163;28;20403;-63
2022/04/11 04:13:17;;;;;;;8.95;4.68;;;4.40;99.90;;;;;;5080264;28;20096;-63
2022/04/11 04:15:43;;;;;;;11.68;5.07;;;4.30;99.90;;;;;;5069073;28;20104;-62
2022/04/11 04:18:10;;;;;;;9.90;4.10;;;4.30;99.90;;;;;;5069755;28;20396;-61
2022/04/11 04:20:36;;;;;;;8.73;4.85;;;4.30;99.90;;;;;;5063772;28;20059;-62
2022/04/11 04:23:02;;;;;;;6.95;4.13;;;4.30;99.90;;;;;;5070747;28;20029;-62
2022/04/11 04:25:28;;;;;;;12.38;4.82;;;4.30;99.90;;;;;;5076032;28;20074;-58
2022/04/11 04:27:54;;;;;;;11.02;4.22;;;4.30;99.90;;;;;;5075207;28;20032;-62
2022/04/11 04:30:19;;;;;;;10.32;4.57;;;4.20;99.90;;;;;;5076181;28;20474;-62
2022/04/11 04:32:45;;;;;;;10.73;4.43;;;4.20;99.90;;;;;;5083203;28;20039;-61
2022/04/11 04:35:12;;;;;;;6.68;4.38;;;4.10;99.90;;;;;;5070438;28;20032;-60
2022/04/11 04:37:37;;;;;;;18.00;4.40;;;4.00;99.90;;;;;;5074381;28;20016;-58
2022/04/11 04:40:04;;;;;;;7.78;4.13;;;4.00;99.90;;;;;;5073240;28;20715;-61
2022/04/11 04:42:29;;;;;;;13.05;4.40;;;3.90;99.90;;;;;;5077440;28;20488;-62
2022/04/11 04:44:55;;;;;;;11.98;4.28;;;3.90;99.90;;;;;;5074156;28;20071;-62
2022/04/11 04:47:21;;;;;;;13.85;5.15;;;3.80;99.90;;;;;;5072577;28;20135;-60
2022/04/11 04:49:47;;;;;;;8.75;4.28;;;3.70;99.90;;;;;;5057842;28;20071;-62
2022/04/11 04:52:13;;;;;;;10.85;4.25;;;3.70;99.90;;;;;;5082219;28;20122;-59
2022/04/11 04:54:40;;;;;;;13.50;4.68;;;3.60;99.90;;;;;;5073979;28;20038;-61
2022/04/11 04:57:06;;;;;;;12.25;4.65;;;3.50;99.90;;;;;;5073830;28;20507;-62
2022/04/11 04:59:32;;;;;;;7.20;4.63;;;3.60;99.90;;;;;;5073399;28;20032;-60
2022/04/11 05:01:57;;;;;;;11.75;4.72;;;3.50;99.90;;;;;;5072562;28;20476;-62
2022/04/11 05:04:23;;;;;;;13.32;4.57;;;3.50;99.90;;;;;;5073482;28;20036;-63
2022/04/11 05:06:49;;;;;;;6.82;4.07;;;3.50;99.90;;;;;;5077649;28;20039;-62
2022/04/11 05:09:15;;;;;;;9.98;4.05;;;3.50;99.90;;;;;;5080928;28;20496;-59
2022/04/11 05:11:40;;;;;;;6.80;4.55;;;3.50;99.90;;;;;;5072301;28;20032;-62
2022/04/11 05:14:06;;;;;;;10.90;4.00;;;3.50;99.90;;;;;;5076314;28;20021;-61
2022/04/11 05:16:32;;;;;;;9.00;4.20;;;3.50;99.90;;;;;;5077504;28;20392;-59
2022/04/11 05:18:57;;;;;;;6.80;4.38;;;3.50;99.90;;;;;;5075037;28;20396;-59
2022/04/11 05:21:23;;;;;;;8.82;3.90;;;3.50;99.90;;;;;;5075847;28;20111;-60
2022/04/11 05:23:48;;;;;;;14.95;4.85;;;3.60;99.90;;;;;;5075957;28;20028;-61
2022/04/11 05:26:14;;;;;;;16.70;4.45;;;3.60;99.90;;;;;;5084018;28;20036;-63
2022/04/11 05:28:40;;;;;;;9.43;4.50;;;3.60;99.90;;;;;;5093238;22;20059;-57
2022/04/11 05:31:06;;;;;;;8.18;4.55;;;3.60;99.90;;;;;;5079746;28;20082;-56
2022/04/11 05:33:32;;;;;;;6.20;4.32;;;3.50;99.90;;;;;;5078744;28;20473;-55
2022/04/11 05:35:57;;;;;;;6.78;4.60;;;3.40;99.90;;;;;;5080240;28;20017;-59
2022/04/11 05:38:23;;;;;;;6.68;4.47;;;3.50;99.90;;;;;;5082891;28;20162;-58
2022/04/11 05:40:49;;;;;;;10.05;4.40;;;3.50;99.90;;;;;;5080065;28;20029;-58
2022/04/11 05:43:15;;;;;;;7.65;4.43;;;3.60;99.90;;;;;;5072558;28;20032;-62
2022/04/11 05:45:42;;;;;;;10.18;3.97;;;3.60;99.90;;;;;;5080549;28;20130;-58
2022/04/11 05:48:08;;;;;;;8.80;4.95;;;3.70;99.90;;;;;;5075636;28;20043;-60
2022/04/11 05:50:33;;;;;;;10.18;5.07;;;3.70;99.90;;;;;;5081433;28;20487;-60
2022/04/11 05:53:00;;;;;;;13.27;5.47;;;3.80;99.90;;;;;;5077631;28;20040;-58
2022/04/11 05:55:26;;;;;;;8.32;4.55;;;3.80;99.90;;;;;;5084317;28;20030;-54
2022/04/11 05:57:52;;;;;;;10.82;5.00;;;3.90;99.90;;;;;;5082224;28;20043;-60
2022/04/11 06:00:19;;;;;;;11.90;4.53;;;4.00;99.90;;;;;;5070676;28;20661;-57
2022/04/11 06:02:44;;;;;;;12.60;4.85;;;4.00;99.90;;;;;;5075440;28;20036;-61
2022/04/11 06:05:10;;;;;;;14.25;4.97;;;4.10;99.90;;;;;;5083982;28;20040;-59
2022/04/11 06:07:36;;;;;;;12.60;4.63;;;4.20;99.90;;;;;;5080846;28;20475;-60
2022/04/11 06:10:02;;;;;;;9.00;5.03;;;4.30;99.90;;;;;;5076240;28;20040;-60
2022/04/11 06:12:28;;;;;;;10.20;4.57;;;4.40;99.90;;;;;;5084748;28;20031;-60
2022/04/11 06:14:53;;;;;;;9.43;4.65;;;4.50;99.90;;;;;;5074843;28;20032;-60
2022/04/11 06:17:23;;;;;;;7.85;3.97;;;4.60;99.90;;;;;;5077661;28;20040;-61
2022/04/11 06:19:53;;;;;;;18.63;4.80;;;4.70;99.90;;;;;;5076498;28;20086;-56
2022/04/11 06:22:19;;;;;;;7.38;4.07;;;4.90;99.90;;;;;;5079717;28;20047;-60
2022/04/11 06:24:45;;;;;;;8.43;5.05;;;5.00;99.90;;;;;;5081622;28;20028;-58
2022/04/11 06:27:11;;;;;;;10.77;4.85;;;5.10;99.90;;;;;;5070514;28;20036;-60
2022/04/11 06:29:37;;;;;;;11.85;5.45;;;5.20;99.90;;;;;;5066305;28;20023;-60
2022/04/11 06:32:04;;;;;;;10.93;4.57;;;5.30;99.90;;;;;;5050849;28;20025;-59
2022/04/11 06:34:34;;;;;;;13.10;5.18;;;5.40;99.90;;;;;;5050991;28;20021;-57
2022/04/11 06:37:00;;;;;;;8.05;4.22;;;5.50;99.90;;;;;;5055353;28;20094;-58
2022/04/11 06:39:26;;;;;;;10.88;4.82;;;5.60;99.90;;;;;;5052718;28;20029;-57
2022/04/11 06:41:52;;;;;;;11.90;4.78;;;5.70;99.90;;;;;;5049783;28;20520;-59
2022/04/11 06:44:18;;;;;;;8.10;4.22;;;5.80;99.90;;;;;;5050689;28;20152;-56
2022/04/11 06:46:43;;;;;;;14.10;4.45;;;5.80;99.90;;;;;;5047798;28;20033;-60
2022/04/11 06:49:09;;;;;;;8.40;4.18;;;5.90;99.90;;;;;;5047319;28;20037;-60
2022/04/11 06:51:34;;;;;;;9.35;4.15;;;6.00;99.90;;;;;;5051630;28;20025;-58
2022/04/11 06:54:00;;;;;;;12.98;4.90;;;6.10;99.90;;;;;;5049774;28;20446;-60
2022/04/11 06:56:25;;;;;;;10.80;4.07;;;6.10;99.90;;;;;;5047787;28;20142;-59
2022/04/11 06:58:51;;;;;;;15.10;4.40;;;6.20;99.90;;;;;;5048214;28;20431;-59
2022/04/11 07:01:17;;;;;;;9.07;4.95;;;6.30;99.90;;;;;;5043514;28;20025;-60
2022/04/11 07:03:42;;;;;;;9.93;4.38;;;6.30;99.90;;;;;;5050313;28;20513;-60
2022/04/11 07:06:09;;;;;;;8.35;4.38;;;6.50;99.90;;;;;;5054836;28;20525;-56
2022/04/11 07:08:34;;;;;;;11.30;5.15;;;6.60;99.90;;;;;;5047644;28;20025;-59
2022/04/11 07:11:00;;;;;;;9.88;4.80;;;6.70;99.90;;;;;;5046504;28;20439;-56
2022/04/11 07:13:26;;;;;;;8.65;4.53;;;6.80;99.90;;;;;;5047806;28;20377;-62
2022/04/11 07:15:52;;;;;;;13.05;4.97;;;6.80;99.90;;;;;;5051367;28;20029;-56
2022/04/11 07:18:19;;;;;;;14.18;5.15;;;6.90;99.90;;;;;;5049642;28;20514;-60
2022/04/11 07:20:45;;;;;;;9.05;4.57;;;7.00;99.90;;;;;;5046782;28;20033;-59
2022/04/11 07:23:11;;;;;;;7.75;4.80;;;7.10;99.90;;;;;;5054188;28;20525;-59
2022/04/11 07:25:37;;;;;;;19.08;5.38;;;7.20;99.90;;;;;;5047108;28;20032;-58
2022/04/11 07:28:03;;;;;;;11.88;4.90;;;7.30;99.90;;;;;;5060938;28;20105;-58
2022/04/11 07:30:28;;;;;;;10.85;4.80;;;7.30;99.90;;;;;;5068104;28;20099;-58
2022/04/11 07:32:54;;;;;;;12.40;4.68;;;7.40;99.90;;;;;;5074227;28;20406;-59
2022/04/11 07:35:19;;;;;;;11.45;4.90;;;7.50;99.90;;;;;;5075501;28;20027;-60
2022/04/11 07:37:45;;;;;;;10.45;4.65;;;7.60;99.90;;;;;;5082287;28;20036;-60
2022/04/11 07:40:11;;;;;;;13.88;5.40;;;7.60;99.90;;;;;;5075180;28;20034;-61
2022/04/11 07:42:36;;;;;;;8.05;4.38;;;7.70;99.90;;;;;;5090069;28;20392;-59
2022/04/11 07:45:02;;;;;;;8.63;5.00;;;7.80;99.90;;;;;;5079503;28;20024;-57
2022/04/11 07:47:27;;;;;;;12.60;5.25;;;7.90;99.90;;;;;;5086756;28;20032;-55
2022/04/11 07:49:54;;;;;;;7.20;5.00;;;8.00;99.90;;;;;;5082847;28;20048;-56
2022/04/11 07:52:21;;;;;;;12.40;4.57;;;8.10;99.90;;;;;;5087710;28;20464;-60
2022/04/11 07:54:46;;;;;;;9.02;4.40;;;8.20;99.90;;;;;;5072227;28;20012;-63
2022/04/11 07:57:13;;;;;;;9.95;4.50;;;8.20;99.90;;;;;;5080502;28;20043;-61
2022/04/11 07:59:39;;;;;;;14.77;5.00;;;8.40;99.90;;;;;;5082527;28;20523;-60
2022/04/11 08:02:06;;;;;;;7.50;4.35;;;8.40;99.90;;;;;;5084036;28;20527;-63
2022/04/11 08:04:32;;;;;;;12.15;4.20;;;8.50;99.90;;;;;;5077973;28;20536;-57
2022/04/11 08:06:59;;;;;;;11.40;4.82;;;8.60;99.90;;;;;;5050542;28;20082;-56
2022/04/11 08:09:25;;;;;;;10.77;4.15;;;8.80;99.90;;;;;;5081864;28;20027;-60
2022/04/11 08:11:50;;;;;;;6.72;4.43;;;8.90;99.90;;;;;;5088789;28;20383;-57
2022/04/11 08:14:16;;;;;;;16.92;5.63;;;9.00;99.90;;;;;;5089318;28;20024;-59
2022/04/11 08:16:42;;;;;;;14.95;5.43;;;9.10;99.90;;;;;;5070306;28;20103;-60
2022/04/11 08:19:07;;;;;;;7.60;3.67;;;9.20;99.90;;;;;;5082553;28;20039;-62
2022/04/11 08:21:33;;;;;;;15.02;3.95;;;9.30;99.90;;;;;;5073442;28;20431;-60
2022/04/11 08:23:58;;;;;;;11.05;4.85;;;9.40;99.90;;;;;;5064481;28;20029;-62
2022/04/11 08:26:24;;;;;;;6.35;3.53;;;9.50;99.90;;;;;;5072498;28;20029;-61
2022/04/11 08:28:49;;;;;;;8.85;3.25;;;9.60;99.90;;;;;;5073937;28;20035;-61
2022/04/11 08:31:15;;;;;;;5.10;2.80;;;9.80;99.90;;;;;;5083982;28;20044;-62
2022/04/11 08:33:41;;;;;;;6.95;3.10;;;9.90;99.90;;;;;;5080000;28;20031;-60
2022/04/11 08:36:06;;;;;;;11.00;3.40;;;10.00;99.90;;;;;;5076568;28;20028;-62
2022/04/11 08:38:32;;;;;;;11.73;3.47;;;10.10;99.90;;;;;;5072368;28;20089;-58
2022/04/11 08:41:02;;;;;;;6.47;2.85;;;10.30;99.90;;;;;;5069807;28;20512;-61
2022/04/11 08:43:27;;;;;;;9.88;2.95;;;10.50;99.90;;;;;;5065119;28;20076;-59
2022/04/11 08:45:54;;;;;;;7.32;2.65;;;10.60;99.90;;;;;;5071752;28;20060;-57
2022/04/11 08:48:22;;;;;;;7.63;2.80;;;10.70;99.90;;;;;;5078447;28;20024;-63
2022/04/11 08:50:48;;;;;;;9.95;2.70;;;10.80;99.90;;;;;;5080741;28;20028;-60
2022/04/11 08:53:14;;;;;;;5.70;2.83;;;11.00;99.90;;;;;;5076920;28;20029;-61
2022/04/11 08:55:40;;;;;;;9.77;3.25;;;11.10;99.90;;;;;;5076650;28;20031;-62
2022/04/11 08:58:08;;;;;;;9.57;2.80;;;11.10;99.90;;;;;;5072823;28;20032;-62
2022/04/11 09:00:34;;;;;;;5.47;2.53;;;11.30;99.90;;;;;;5068197;28;20029;-62
2022/04/11 09:02:59;;;;;;;5.20;2.72;;;11.40;99.90;;;;;;5075631;28;20039;-61
2022/04/11 09:05:25;;;;;;;7.28;2.40;;;11.50;99.90;;;;;;5084574;28;20503;-62
2022/04/11 09:07:53;;;;;;;4.40;2.20;;;11.60;99.90;;;;;;5078771;28;20113;-62
2022/04/11 09:10:20;;;;;;;10.27;2.95;;;11.70;99.90;;;;;;5078218;28;20368;-61
2022/04/11 09:12:47;;;;;;;4.85;1.90;;;11.80;99.90;;;;;;5076133;28;20388;-61
2022/04/11 09:15:13;;;;;;;7.05;2.30;;;11.80;99.90;;;;;;5084120;28;20606;-62
2022/04/11 09:17:43;;;;;;;5.65;2.20;;;11.90;99.90;;;;;;5082191;28;20024;-62
2022/04/11 09:20:14;;;;;;;4.47;1.85;;;11.90;99.90;;;;;;5083985;28;20047;-60
2022/04/11 09:22:43;;;;;;;4.38;2.08;;;12.10;99.90;;;;;;5073589;28;20036;-61
2022/04/11 09:25:10;;;;;;;7.38;3.03;;;12.10;99.90;;;;;;5069562;28;20111;-59
2022/04/11 09:27:36;;;;;;;5.00;2.53;;;12.20;99.90;;;;;;5076285;28;20036;-61
2022/04/11 09:30:03;;;;;;;7.22;2.63;;;12.40;99.90;;;;;;5074943;28;20565;-61
2022/04/11 09:32:28;;;;;;;5.85;2.72;;;12.60;99.90;;;;;;5070929;28;20451;-61
2022/04/11 09:34:54;;;;;;;7.05;3.08;;;12.80;99.90;;;;;;5073825;28;20024;-62
2022/04/11 09:37:20;;;;;;;6.72;3.45;;;12.90;99.90;;;;;;5074459;28;20100;-63
2022/04/11 09:39:55;;;;;;;5.47;2.60;;;13.10;99.90;;;;;;5076913;28;20024;-59
2022/04/11 09:42:31;;;;;;;9.23;3.25;;;13.30;99.90;;;;;;5073832;28;20024;-62
2022/04/11 09:45:00;;;;;;;4.15;2.92;;;13.40;99.90;;;;;;5068739;28;20025;-61
2022/04/11 09:47:26;;;;;;;8.68;3.38;;;13.60;99.90;;;;;;5070648;28;20032;-60
2022/04/11 09:49:52;;;;;;;10.30;3.08;;;13.70;99.90;;;;;;5074703;28;20507;-60
2022/04/11 09:52:18;;;;;;;7.50;3.40;;;13.80;99.90;;;;;;5072612;28;20522;-58
2022/04/11 09:54:46;;;;;;;7.05;2.72;;;13.80;99.90;;;;;;5074768;28;20051;-62
2022/04/11 09:57:14;;;;;;;7.00;3.13;;;13.70;99.90;;;;;;5074475;28;20024;-61
2022/04/11 09:59:40;;;;;;;9.60;3.83;;;13.80;99.90;;;;;;5067006;28;20017;-59
2022/04/11 10:02:07;;;;;;;13.30;2.97;;;14.00;99.90;;;;;;5075907;28;20028;-62
2022/04/11 10:04:34;;;;;;;14.57;3.20;;;14.30;99.90;;;;;;5073067;28;20028;-61
2022/04/11 10:07:00;;;;;;;4.25;2.60;;;14.40;99.90;;;;;;5080329;28;20028;-61
2022/04/11 10:09:26;;;;;;;6.40;3.40;;;14.60;99.90;;;;;;5071057;28;20025;-59
2022/04/11 10:11:53;;;;;;;12.30;3.60;;;14.70;99.90;;;;;;5071140;28;20033;-60
2022/04/11 10:14:27;;;;;;;6.30;2.53;;;14.80;99.90;;;;;;5072072;28;20028;-61
2022/04/11 10:16:56;;;;;;;9.05;2.50;;;14.80;99.90;;;;;;5072686;28;20031;-61
2022/04/11 10:19:29;;;;;;;10.18;2.58;;;14.90;99.90;;;;;;5072505;28;20039;-60
2022/04/11 10:22:25;;;;;;;5.97;2.87;;;15.00;99.90;;;;;;5069991;28;20649;-63
2022/04/11 10:25:02;;;;;;;4.55;2.35;;;15.00;99.90;;;;;;5073183;28;20270;-62
2022/04/11 10:27:29;;;;;;;8.57;2.28;;;15.30;99.90;;;;;;5070290;28;20063;-63
2022/04/11 10:29:55;;;;;;;8.68;2.70;;;15.40;99.90;;;;;;5072169;28;20388;-59
2022/04/11 10:32:26;;;;;;;8.23;3.00;;;15.40;99.90;;;;;;5078101;28;20099;-60
2022/04/11 10:35:30;;;;;;;6.38;2.25;;;15.30;99.90;;;;;;5077323;28;20079;-59
2022/04/11 10:37:56;;;;;;;5.47;2.75;;;15.50;99.90;;;;;;5081139;28;20100;-60
2022/04/11 10:40:21;;;;;;;6.35;2.47;;;15.50;99.90;;;;;;5082730;28;20036;-58
2022/04/11 10:43:07;;;;;;;6.38;2.50;;;15.90;99.90;;;;;;5082520;28;20036;-62
2022/04/11 10:45:40;;;;;;;6.78;2.92;;;16.00;99.90;;;;;;5069417;28;20059;-58
2022/04/11 10:48:07;;;;;;;6.15;2.35;;;16.30;99.90;;;;;;5070762;28;20063;-59
2022/04/11 10:50:43;;;;;;;6.30;2.17;;;16.50;99.90;;;;;;5077390;28;20048;-61
2022/04/11 10:53:13;;;;;;;6.32;2.45;;;16.40;99.90;;;;;;5077874;28;20028;-60
2022/04/11 10:55:59;;;;;;;8.50;2.40;;;16.50;99.90;;;;;;5071794;28;20016;-58
2022/04/11 10:58:40;;;;;;;6.78;2.83;;;16.70;99.90;;;;;;5070737;28;20042;-59
2022/04/11 11:01:07;;;;;;;9.90;2.58;;;16.50;99.90;;;;;;5072491;28;20383;-58
2022/04/11 11:03:32;;;;;;;7.68;2.80;;;16.40;99.90;;;;;;5060185;28;20093;-59
2022/04/11 11:06:15;;;;;;;6.32;2.47;;;16.80;99.90;;;;;;5072893;28;20467;-59
2022/04/11 11:08:41;;;;;;;4.60;2.75;;;16.90;99.90;;;;;;5073077;28;20056;-60
2022/04/11 11:11:21;;;;;;;10.85;2.35;;;16.70;99.90;;;;;;5089456;28;20044;-57
2022/04/11 11:13:48;;;;;;;9.52;2.78;;;16.80;99.90;;;;;;5076094;28;20024;-58
2022/04/11 11:16:14;;;;;;;12.18;3.65;;;17.00;99.90;;;;;;5074639;28;20044;-57
2022/04/11 11:18:48;;;;;;;4.13;2.33;;;17.00;99.90;;;;;;5075925;28;20063;-59
2022/04/11 11:21:21;;;;;;;4.28;2.42;;;17.00;99.90;;;;;;5078741;28;20032;-58
2022/04/11 11:24:08;;;;;;;7.43;2.35;;;17.00;99.90;;;;;;5073698;28;20514;-61
2022/04/11 11:26:45;;;;;;;7.10;2.55;;;16.80;99.90;;;;;;5077270;28;20024;-58
2022/04/11 11:29:21;;;;;;;8.43;3.15;;;16.90;99.90;;;;;;5077229;28;20036;-60
2022/04/11 11:31:49;;;;;;;9.27;2.60;;;16.80;99.90;;;;;;5067301;28;20496;-60
2022/04/11 11:34:18;;;;;;;5.28;2.25;;;16.90;99.90;;;;;;5086305;22;20056;-56
2022/04/11 11:36:44;;;;;;;8.45;2.78;;;16.90;99.90;;;;;;5047982;28;20070;-59
2022/04/11 11:39:18;;;;;;;7.90;2.50;;;17.10;99.90;;;;;;5052093;28;20044;-60
2022/04/11 11:41:45;;;;;;;6.07;2.47;;;17.10;99.90;;;;;;5052442;28;20025;-57
2022/04/11 11:44:10;;;;;;;5.00;2.17;;;17.00;99.90;;;;;;5052921;28;20033;-59
2022/04/11 11:46:56;;;;;;;5.55;2.72;;;17.20;99.90;;;;;;5058113;28;20350;-53
2022/04/11 11:49:23;;;;;;;5.53;2.40;;;17.30;99.90;;;;;;5047109;28;20042;-57
2022/04/11 11:51:49;;;;;;;6.05;2.55;;;17.30;99.90;;;;;;5049754;28;20511;-57
2022/04/11 11:54:34;;;;;;;4.43;2.05;;;17.10;99.70;;;;;;5055510;28;20021;-54
2022/04/11 11:57:01;;;;;;;4.05;2.38;;;17.50;99.90;;;;;;5053097;28;20040;-54
2022/04/11 11:59:27;;;;;;;5.75;2.22;;;17.60;99.10;;;;;;5050744;28;20021;-58
2022/04/11 12:04:39;;;;;;;5.85;2.63;;;17.60;98.90;;;;;;5049773;28;20032;-56
2022/04/11 12:07:05;;;;;;;7.03;2.35;;;17.80;99.90;;;;;;5044469;28;20112;-58
2022/04/11 12:09:39;;;;;;;5.82;2.70;;;17.90;98.30;;;;;;5053281;28;20087;-59
2022/04/11 12:12:06;;;;;;;6.68;2.60;;;18.10;99.90;;;;;;5048398;28;20066;-59
2022/04/11 12:14:57;;;;;;;5.43;2.50;;;18.10;98.70;;;;;;5049463;28;20036;-59
2022/04/11 12:17:33;;;;;;;5.35;2.42;;;18.40;99.00;;;;;;5048219;28;20404;-56
2022/04/11 12:20:06;;;;;;;6.68;2.60;;;18.50;97.00;;;;;;5053005;28;20029;-57
2022/04/11 12:22:31;;;;;;;9.05;3.10;;;18.50;96.80;;;;;;5054213;28;20062;-55
2022/04/11 12:24:57;;;;;;;4.47;2.22;;;18.60;97.30;;;;;;5048450;28;20033;-58
2022/04/11 12:27:23;;;;;;;6.10;2.50;;;18.40;97.90;;;;;;5045343;28;20060;-62
2022/04/11 12:29:49;;;;;;;9.00;2.65;;;18.40;98.90;;;;;;5049222;28;20130;-57
2022/04/11 12:32:15;;;;;;;6.45;2.40;;;18.60;97.00;;;;;;5051557;28;20029;-57
2022/04/11 12:34:45;;;;;;;4.78;2.08;;;18.80;96.50;;;;;;5031125;28;20040;-58
2022/04/11 12:37:16;;;;;;;7.10;2.30;;;19.10;97.30;;;;;;5050390;28;20017;-56
2022/04/11 12:40:01;;;;;;;6.38;2.47;;;19.20;95.90;;;;;;5050443;28;20021;-60
2022/04/11 12:42:28;;;;;;;5.75;2.20;;;19.30;95.30;;;;;;5047311;28;20028;-57
2022/04/11 12:45:08;;;;;;;4.40;2.20;;;19.30;96.30;;;;;;5054653;28;20048;-61
2022/04/11 12:47:53;;;;;;;7.47;2.25;;;19.40;94.60;;;;;;5058999;28;20036;-57
2022/04/11 12:50:22;;;;;;;8.80;2.45;;;19.40;95.30;;;;;;5047724;28;20464;-56
2022/04/11 12:52:48;;;;;;;7.75;2.55;;;19.60;95.10;;;;;;5058673;28;20021;-55
2022/04/11 12:55:14;;;;;;;6.88;2.85;;;19.50;93.90;;;;;;5031597;28;20388;-60